Página principal
METAR-TAF:

METAR-TAF

Aeroportos :

Harbin, China

Aeroporto Internacional Harbin Taiping

latitude: 45-45N, longitude: 126-46E, altura: 143 m

Observação actual do tempo

O boletim foi feito há 41 minutos, às 23:00 UTC
Vento 8 kt de oes-noroeste
Temperatura -17°C
Humidade 59%
Pressão 1022 hPa
Visibilidade 10 km ou mais
sem nuvens abaixo de 1500 metros e sem cumulonimbus

METAR: ZYHB 182300Z 30004MPS CAVOK M17/M23 Q1022 NOSIG

Hora: 07:41 (23:41 UTC)

Previsão

O boletim foi feito há 4 horas e 23 minutos, às 19:18 UTC
Previsão válida de 19 às 00 UTC a 19 às 24 UTC
Vento 8 kt de oeste
Visibilidade: 5000 m
Poucas nuvensa uma altura de 3300 ft
bruma

TAF: ZYHB 181918Z 1900/1924 27004MPS 5000 HZ FEW033 TXM07/06Z TNM21/21Z

Observações e previsões do tempo de mais de 4000 aeroportos (mensagens METAR e TAF).

As estações disponíveis são os pontos amarelos e vermelhos sobre o mapa.

Mova o rato sobre o mapa para ver o nome da estação.

Depois clique no ponto para visualizar as observações e previsões meteorológicas.

Para alterar o mapa : clique nos botões verdes com uma cruz preta para aumentar o zoom; no botão verde com uma pitada de zoom; ou nas setas verdes para mapas adjacentes.


METAR-TAF: